createdAt,value
2023-05-07T00:00:16.845Z,12.21
2023-05-07T00:03:31.765Z,12.06
2023-05-07T00:06:44.146Z,12.00
2023-05-07T00:15:56.367Z,11.98
2023-05-07T00:19:08.935Z,11.88
2023-05-07T00:22:21.109Z,11.65
2023-05-07T00:25:33.356Z,11.54
2023-05-07T00:28:45.630Z,11.47
2023-05-07T00:31:59.493Z,11.43
2023-05-07T00:35:14.390Z,11.40
2023-05-07T00:38:26.595Z,11.37
2023-05-07T00:41:38.905Z,11.40
2023-05-07T00:44:51.370Z,11.32
2023-05-07T00:48:05.957Z,11.22
2023-05-07T00:51:18.963Z,11.23
2023-05-07T00:54:31.216Z,11.21
2023-05-07T00:57:46.900Z,11.20
2023-05-07T01:00:59.468Z,11.15
2023-05-07T01:04:11.875Z,11.11
2023-05-07T01:07:24.788Z,11.08
2023-05-07T01:10:37.364Z,11.04
2023-05-07T01:13:50.812Z,10.98
2023-05-07T01:17:03.305Z,10.98
2023-05-07T01:20:18.082Z,11.01
2023-05-07T01:23:32.122Z,11.03
2023-05-07T01:26:45.208Z,11.00
2023-05-07T01:29:59.005Z,10.95
2023-05-07T01:33:15.937Z,10.93
2023-05-07T01:36:29.973Z,10.92
2023-05-07T01:39:44.591Z,10.84
2023-05-07T01:42:57.154Z,10.80
2023-05-07T01:46:11.257Z,10.73
2023-05-07T01:49:23.784Z,10.70
2023-05-07T01:52:36.277Z,10.56
2023-05-07T01:55:48.630Z,10.55
2023-05-07T01:59:01.989Z,10.57
2023-05-07T02:02:14.899Z,10.56
2023-05-07T02:05:28.637Z,10.50
2023-05-07T02:08:43.010Z,10.42
2023-05-07T02:11:56.222Z,10.41
2023-05-07T02:15:10.753Z,10.36
2023-05-07T02:18:24.012Z,10.34
2023-05-07T02:21:36.633Z,10.27
2023-05-07T02:24:48.870Z,10.19
2023-05-07T02:28:01.045Z,10.19
2023-05-07T02:31:21.174Z,10.13
2023-05-07T02:34:33.662Z,10.03
2023-05-07T02:37:45.962Z,9.99
2023-05-07T02:40:59.210Z,9.99
2023-05-07T02:44:11.555Z,10.07
2023-05-07T02:47:24.258Z,10.11
2023-05-07T02:50:36.639Z,10.05
2023-05-07T02:53:48.936Z,10.07
2023-05-07T02:57:02.171Z,9.98
2023-05-07T03:00:27.127Z,10.00
2023-05-07T03:03:47.183Z,10.01
2023-05-07T03:06:59.574Z,9.97
2023-05-07T03:10:13.681Z,9.89
2023-05-07T03:13:26.274Z,9.92
2023-05-07T03:16:38.754Z,9.77
2023-05-07T03:19:50.985Z,9.71
2023-05-07T03:23:03.578Z,9.78
2023-05-07T03:26:15.881Z,9.72
2023-05-07T03:29:28.423Z,9.69
2023-05-07T03:32:41.343Z,9.60
2023-05-07T03:35:55.682Z,9.62
2023-05-07T03:39:09.711Z,9.60
2023-05-07T03:42:23.886Z,9.52
2023-05-07T03:45:37.476Z,9.41
2023-05-07T03:48:51.831Z,9.32
2023-05-07T03:52:05.212Z,9.43
2023-05-07T03:55:19.153Z,9.33
2023-05-07T03:58:33.321Z,9.28
2023-05-07T04:01:47.390Z,9.36
2023-05-07T04:05:01.816Z,9.37
2023-05-07T04:08:14.860Z,9.42
2023-05-07T04:11:29.108Z,9.40
2023-05-07T04:14:43.256Z,9.40
2023-05-07T04:17:55.721Z,9.35
2023-05-07T04:21:09.209Z,9.31
2023-05-07T04:24:22.259Z,9.28
2023-05-07T04:27:34.542Z,9.25
2023-05-07T04:30:47.077Z,9.30
2023-05-07T04:33:59.889Z,9.25
2023-05-07T04:37:12.957Z,9.19
2023-05-07T04:40:25.877Z,9.15
2023-05-07T04:43:43.044Z,9.17
2023-05-07T04:46:56.586Z,9.01
2023-05-07T04:50:10.259Z,9.06
2023-05-07T04:53:23.659Z,9.01
2023-05-07T04:56:38.015Z,9.02
2023-05-07T04:59:50.061Z,9.10
2023-05-07T05:03:02.321Z,9.07
2023-05-07T05:06:15.149Z,8.99
2023-05-07T05:09:27.578Z,8.98
2023-05-07T05:12:40.108Z,8.95
2023-05-07T05:15:53.065Z,8.91
2023-05-07T05:19:06.857Z,8.90
2023-05-07T05:22:21.995Z,8.93
2023-05-07T05:25:35.075Z,8.90
2023-05-07T05:28:47.554Z,8.93
2023-05-07T05:32:00.681Z,8.87
2023-05-07T05:35:15.666Z,8.88
2023-05-07T05:38:28.949Z,8.88
2023-05-07T05:41:41.812Z,8.86
2023-05-07T05:44:54.400Z,8.84
2023-05-07T05:48:06.785Z,8.78
2023-05-07T05:51:19.469Z,8.72
2023-05-07T05:54:31.672Z,8.68
2023-05-07T05:57:44.457Z,8.62
2023-05-07T06:00:57.831Z,8.60
2023-05-07T06:04:11.468Z,8.57
2023-05-07T06:07:23.987Z,8.45
2023-05-07T06:10:36.787Z,8.45
2023-05-07T06:13:50.542Z,8.43
2023-05-07T06:17:03.098Z,8.44
2023-05-07T06:20:17.798Z,8.36
2023-05-07T06:23:30.644Z,8.29
2023-05-07T06:26:42.784Z,8.18
2023-05-07T06:29:56.997Z,8.28
2023-05-07T06:33:09.492Z,8.25
2023-05-07T06:36:22.432Z,8.33
2023-05-07T06:39:35.086Z,8.31
2023-05-07T06:42:47.269Z,8.26
2023-05-07T06:46:02.735Z,8.34
2023-05-07T06:49:15.523Z,8.34
2023-05-07T06:52:28.508Z,8.38
2023-05-07T06:55:40.913Z,8.38
2023-05-07T06:58:53.207Z,8.36
2023-05-07T07:02:07.210Z,8.37
2023-05-07T07:05:19.627Z,8.47
2023-05-07T07:08:32.091Z,8.41
2023-05-07T07:11:45.234Z,8.47
2023-05-07T07:14:57.824Z,8.49
2023-05-07T07:18:11.143Z,8.43
2023-05-07T07:21:23.679Z,8.32
2023-05-07T07:24:36.920Z,8.37
2023-05-07T07:27:51.119Z,8.42
2023-05-07T07:31:03.412Z,8.34
2023-05-07T07:34:16.944Z,8.42
2023-05-07T07:37:29.602Z,8.51
2023-05-07T07:40:45.008Z,8.45
2023-05-07T07:43:57.519Z,8.55
2023-05-07T07:47:10.706Z,8.51
2023-05-07T07:50:40.542Z,8.52
2023-05-07T07:53:39.959Z,8.56
2023-05-07T07:56:52.563Z,8.46
2023-05-07T08:00:05.334Z,8.50
2023-05-07T08:03:21.454Z,8.37
2023-05-07T08:06:42.010Z,8.29
2023-05-07T08:09:55.124Z,8.29
2023-05-07T08:13:09.543Z,8.36
2023-05-07T08:16:24.179Z,8.36
2023-05-07T08:19:39.250Z,8.40
2023-05-07T08:22:52.914Z,8.43
2023-05-07T08:26:05.647Z,8.36
2023-05-07T08:29:18.617Z,8.28
2023-05-07T08:32:32.920Z,8.21
2023-05-07T08:35:45.289Z,8.27
2023-05-07T08:38:58.611Z,8.22
2023-05-07T08:42:14.195Z,8.30
2023-05-07T08:45:28.252Z,8.24
2023-05-07T08:48:42.426Z,8.11
2023-05-07T08:51:57.907Z,8.16
2023-05-07T08:55:14.553Z,8.19
2023-05-07T08:58:30.209Z,8.27
2023-05-07T09:01:43.180Z,8.23
2023-05-07T09:04:56.748Z,8.20
2023-05-07T09:08:12.884Z,8.16
2023-05-07T09:11:27.607Z,8.21
2023-05-07T09:14:41.244Z,8.23
2023-05-07T09:17:53.409Z,8.25
2023-05-07T09:21:05.879Z,8.16
2023-05-07T09:24:20.230Z,8.20
2023-05-07T09:27:33.070Z,8.27
2023-05-07T09:30:45.679Z,8.31
2023-05-07T09:34:00.101Z,8.26
2023-05-07T09:37:14.425Z,8.24
2023-05-07T09:40:34.754Z,8.18
2023-05-07T09:43:49.196Z,8.25
2023-05-07T09:47:06.630Z,8.09
2023-05-07T09:50:22.477Z,8.18
2023-05-07T09:53:36.637Z,8.15
2023-05-07T09:56:50.132Z,8.17
2023-05-07T10:00:05.460Z,8.16
2023-05-07T10:03:21.596Z,8.28
2023-05-07T10:06:42.966Z,8.31
2023-05-07T10:09:57.134Z,8.28
2023-05-07T10:13:12.449Z,8.20
2023-05-07T10:16:28.381Z,8.29
2023-05-07T10:19:43.448Z,8.34
2023-05-07T10:22:57.718Z,8.28
2023-05-07T10:26:15.543Z,8.27
2023-05-07T10:29:38.664Z,8.33
2023-05-07T10:32:56.133Z,8.27
2023-05-07T10:36:12.951Z,8.24
2023-05-07T10:39:26.827Z,8.23
2023-05-07T10:42:39.845Z,8.13
2023-05-07T10:46:08.253Z,8.14
2023-05-07T10:49:22.704Z,8.24
2023-05-07T10:52:39.993Z,8.24
2023-05-07T10:55:56.558Z,8.30
2023-05-07T10:59:48.889Z,8.23
2023-05-07T11:03:16.415Z,8.24
2023-05-07T11:06:32.999Z,8.28
2023-05-07T11:10:09.089Z,8.26
2023-05-07T11:13:50.674Z,8.28
2023-05-07T11:17:12.410Z,8.29
2023-05-07T11:20:27.551Z,8.23
2023-05-07T11:24:16.771Z,8.34
2023-05-07T11:27:34.596Z,8.34
2023-05-07T11:30:48.854Z,8.38
2023-05-07T11:34:04.024Z,8.54
2023-05-07T11:37:17.071Z,8.55
2023-05-07T11:40:31.534Z,8.63
2023-05-07T11:43:46.068Z,8.56
2023-05-07T11:46:59.674Z,8.37
2023-05-07T11:50:15.404Z,8.46
2023-05-07T11:53:31.359Z,8.50
2023-05-07T11:56:44.533Z,8.47
2023-05-07T11:59:59.916Z,8.41
2023-05-07T12:03:14.850Z,8.47
2023-05-07T12:06:28.386Z,8.47
2023-05-07T12:09:42.908Z,8.49
2023-05-07T12:12:56.367Z,8.56
2023-05-07T12:16:10.266Z,8.55
2023-05-07T12:19:23.154Z,8.55
2023-05-07T12:22:35.797Z,8.61
2023-05-07T12:25:49.232Z,8.46
2023-05-07T12:29:01.777Z,8.55
2023-05-07T12:32:20.653Z,8.57
2023-05-07T12:35:44.666Z,8.53
2023-05-07T12:38:58.925Z,8.54
2023-05-07T12:42:11.632Z,8.57
2023-05-07T12:45:24.998Z,8.51
2023-05-07T12:48:37.285Z,8.51
2023-05-07T12:51:49.383Z,8.53
2023-05-07T12:55:01.496Z,8.62
2023-05-07T12:58:13.659Z,8.55
2023-05-07T13:01:26.702Z,8.53
2023-05-07T13:04:39.783Z,8.59
2023-05-07T13:08:01.330Z,8.55
2023-05-07T13:11:14.676Z,8.55
2023-05-07T13:14:26.767Z,8.54
2023-05-07T13:17:39.113Z,8.51
2023-05-07T13:20:51.626Z,8.50
2023-05-07T13:24:03.770Z,8.45
2023-05-07T13:27:16.865Z,8.49
2023-05-07T13:30:29.171Z,8.60
2023-05-07T13:33:41.412Z,8.54
2023-05-07T13:36:53.552Z,8.64
2023-05-07T13:43:18.985Z,8.64
2023-05-07T13:46:31.475Z,8.46
2023-05-07T13:49:43.877Z,8.34
2023-05-07T13:52:56.265Z,8.37
2023-05-07T13:56:09.142Z,8.40
2023-05-07T13:59:21.319Z,8.45
2023-05-07T14:02:33.686Z,8.40
2023-05-07T14:05:48.165Z,8.39
2023-05-07T14:09:01.534Z,8.35
2023-05-07T14:12:15.226Z,8.22
2023-05-07T14:15:28.009Z,8.35
2023-05-07T14:18:40.611Z,8.40
2023-05-07T14:21:53.355Z,8.43
2023-05-07T14:25:07.221Z,8.42
2023-05-07T14:28:19.776Z,8.46
2023-05-07T14:31:32.636Z,8.48
2023-05-07T14:34:44.874Z,8.44
2023-05-07T14:37:57.217Z,8.44
2023-05-07T14:41:09.712Z,8.44
2023-05-07T14:44:21.944Z,8.45
2023-05-07T14:47:34.276Z,8.48
2023-05-07T14:50:47.075Z,8.50
2023-05-07T14:54:00.048Z,8.52
2023-05-07T14:57:15.960Z,8.47
2023-05-07T15:00:29.007Z,8.56
2023-05-07T15:03:41.641Z,8.41
2023-05-07T15:06:55.021Z,8.40
2023-05-07T15:10:07.828Z,8.39
2023-05-07T15:13:20.801Z,8.39
2023-05-07T15:16:34.092Z,8.33
2023-05-07T15:19:46.376Z,8.33
2023-05-07T15:22:59.602Z,8.31
2023-05-07T15:26:13.127Z,8.31
2023-05-07T15:29:26.470Z,8.11
2023-05-07T15:32:39.016Z,8.01
2023-05-07T15:35:51.500Z,7.88
2023-05-07T15:39:05.649Z,7.83
2023-05-07T15:42:17.960Z,7.79
2023-05-07T15:45:31.545Z,7.75
2023-05-07T15:48:44.027Z,7.86
2023-05-07T15:51:58.208Z,7.72
2023-05-07T15:55:12.154Z,7.75
2023-05-07T15:58:24.681Z,7.75
2023-05-07T16:01:37.279Z,7.78
2023-05-07T16:04:49.853Z,7.84
2023-05-07T16:08:02.766Z,7.80
2023-05-07T16:11:15.180Z,7.86
2023-05-07T16:14:27.516Z,7.84
2023-05-07T16:17:39.855Z,7.83
2023-05-07T16:20:52.860Z,7.75
2023-05-07T16:24:05.236Z,7.76
2023-05-07T16:27:17.762Z,7.82
2023-05-07T16:30:30.581Z,7.81
2023-05-07T16:33:42.927Z,7.73
2023-05-07T16:36:55.249Z,7.76
2023-05-07T16:40:10.611Z,7.72
2023-05-07T16:43:22.802Z,7.72
2023-05-07T16:46:35.295Z,7.76
2023-05-07T16:49:47.595Z,7.71
2023-05-07T16:53:00.116Z,7.72
2023-05-07T16:56:14.532Z,7.60
2023-05-07T16:59:28.940Z,7.57
2023-05-07T17:02:41.754Z,7.58
2023-05-07T17:05:55.081Z,7.66
2023-05-07T17:09:08.029Z,7.60
2023-05-07T17:12:31.605Z,7.58
2023-05-07T17:15:46.703Z,7.54
2023-05-07T17:18:59.265Z,7.55
2023-05-07T17:22:11.882Z,7.53
2023-05-07T17:25:24.421Z,7.50
2023-05-07T17:28:37.403Z,7.47
2023-05-07T17:31:49.778Z,7.50
2023-05-07T17:35:02.386Z,7.49
2023-05-07T17:38:14.884Z,7.54
2023-05-07T17:41:27.387Z,7.49
2023-05-07T17:44:41.339Z,7.48
2023-05-07T17:47:53.778Z,7.37
2023-05-07T17:51:12.560Z,7.42
2023-05-07T17:54:26.327Z,7.42
2023-05-07T17:57:39.469Z,7.49
2023-05-07T18:00:52.093Z,7.46
2023-05-07T18:04:06.203Z,7.45
2023-05-07T18:07:18.970Z,7.44
2023-05-07T18:10:31.883Z,7.44
2023-05-07T18:13:44.613Z,7.38
2023-05-07T18:16:56.992Z,7.40
2023-05-07T18:20:12.008Z,7.39
2023-05-07T18:23:24.901Z,7.43
2023-05-07T18:26:37.420Z,7.45
2023-05-07T18:29:49.792Z,7.46
2023-05-07T18:33:02.268Z,7.43
2023-05-07T18:36:16.088Z,7.43
2023-05-07T18:39:29.899Z,7.38
2023-05-07T18:42:42.200Z,7.40
2023-05-07T18:45:56.613Z,7.35
2023-05-07T18:49:08.962Z,7.29
2023-05-07T18:52:22.302Z,7.21
2023-05-07T18:55:35.171Z,7.23
2023-05-07T18:58:47.725Z,7.17
2023-05-07T19:02:00.248Z,7.13
2023-05-07T19:05:14.695Z,7.12
2023-05-07T19:08:27.278Z,7.14
2023-05-07T19:11:39.870Z,7.11
2023-05-07T19:14:53.417Z,7.06
2023-05-07T19:18:06.335Z,7.08
2023-05-07T19:21:19.101Z,6.99
2023-05-07T19:24:31.531Z,6.99
2023-05-07T19:27:44.084Z,6.98
2023-05-07T19:30:56.404Z,6.99
2023-05-07T19:34:08.947Z,6.95
2023-05-07T19:37:23.673Z,6.93
2023-05-07T19:40:36.965Z,6.93
2023-05-07T19:43:49.958Z,6.89
2023-05-07T19:47:06.153Z,6.87
2023-05-07T19:50:19.985Z,6.91
2023-05-07T19:53:32.698Z,6.94
2023-05-07T19:56:45.634Z,6.93
2023-05-07T19:59:58.149Z,6.95
2023-05-07T20:03:12.988Z,6.89
2023-05-07T20:06:26.655Z,6.93
2023-05-07T20:09:39.206Z,6.95
2023-05-07T20:12:51.862Z,6.95
2023-05-07T20:16:07.718Z,6.97
2023-05-07T20:19:20.892Z,6.98
2023-05-07T20:22:35.596Z,7.03
2023-05-07T20:25:50.745Z,6.98
2023-05-07T20:29:03.382Z,6.93
2023-05-07T20:32:15.703Z,6.94
2023-05-07T20:35:28.116Z,7.00
2023-05-07T20:38:40.410Z,7.00
2023-05-07T20:41:53.580Z,6.99
2023-05-07T20:45:06.080Z,6.87
2023-05-07T20:48:19.004Z,6.96
2023-05-07T20:51:31.753Z,6.94
2023-05-07T20:54:44.853Z,7.00
2023-05-07T20:57:57.361Z,6.99
2023-05-07T21:01:11.740Z,6.99
2023-05-07T21:04:24.594Z,6.91
2023-05-07T21:07:37.282Z,6.90
2023-05-07T21:10:49.743Z,6.81
2023-05-07T21:14:02.156Z,6.87
2023-05-07T21:17:14.556Z,6.85
2023-05-07T21:20:26.856Z,6.86
2023-05-07T21:23:39.176Z,6.85
2023-05-07T21:26:51.556Z,6.89
2023-05-07T21:30:05.158Z,6.84
2023-05-07T21:33:17.985Z,6.82
2023-05-07T21:36:30.450Z,6.81
2023-05-07T21:39:42.811Z,6.81
2023-05-07T21:42:55.297Z,6.80
2023-05-07T21:46:07.948Z,6.79
2023-05-07T21:49:20.505Z,6.81
2023-05-07T21:52:32.781Z,6.76
2023-05-07T21:55:45.230Z,6.75
2023-05-07T21:58:57.937Z,6.70
2023-05-07T22:02:10.390Z,6.70
2023-05-07T22:05:23.081Z,6.69
2023-05-07T22:08:35.367Z,6.69
2023-05-07T22:11:47.578Z,6.73
2023-05-07T22:14:59.787Z,6.70
2023-05-07T22:18:12.169Z,6.69
2023-05-07T22:21:25.016Z,6.70
2023-05-07T22:24:38.245Z,6.66
2023-05-07T22:27:50.979Z,6.68
2023-05-07T22:31:03.140Z,6.64
2023-05-07T22:34:15.294Z,6.69
2023-05-07T22:37:27.752Z,6.67
2023-05-07T22:40:40.179Z,6.65
2023-05-07T22:43:52.418Z,6.66
2023-05-07T22:47:04.840Z,6.70
2023-05-07T22:50:18.765Z,6.68
2023-05-07T22:53:31.089Z,6.68
2023-05-07T22:56:43.309Z,6.65
2023-05-07T22:59:59.281Z,6.67
2023-05-07T23:03:11.613Z,6.67
2023-05-07T23:06:23.997Z,6.61
2023-05-07T23:09:36.542Z,6.59
2023-05-07T23:12:49.703Z,6.58
2023-05-07T23:16:02.332Z,6.60
2023-05-07T23:19:14.826Z,6.65
2023-05-07T23:22:27.220Z,6.63
2023-05-07T23:25:39.601Z,6.54
2023-05-07T23:28:51.837Z,6.56
2023-05-07T23:32:04.036Z,6.58
2023-05-07T23:35:17.482Z,6.55
2023-05-07T23:38:29.655Z,6.57
2023-05-07T23:41:42.025Z,6.59
2023-05-07T23:44:54.682Z,6.60
2023-05-07T23:48:06.719Z,6.56
2023-05-07T23:51:18.890Z,6.55
2023-05-07T23:54:31.324Z,6.57
2023-05-07T23:57:43.922Z,6.50
